sensor_id;sensor_type;location;lat;lon;timestamp;P1;durP1;ratioP1;P2;durP2;ratioP2
35326;SDS011;21436;52.348;20.928;2023-02-01T00:01:05;18.50;;;9.77;;
35326;SDS011;21436;52.348;20.928;2023-02-01T00:03:35;22.55;;;11.32;;
35326;SDS011;21436;52.348;20.928;2023-02-01T00:06:03;18.02;;;11.18;;
35326;SDS011;21436;52.348;20.928;2023-02-01T00:08:32;17.27;;;9.95;;
35326;SDS011;21436;52.348;20.928;2023-02-01T00:13:31;21.67;;;11.10;;
35326;SDS011;21436;52.348;20.928;2023-02-01T00:18:50;20.08;;;10.38;;
35326;SDS011;21436;52.348;20.928;2023-02-01T00:21:19;16.95;;;9.40;;
35326;SDS011;21436;52.348;20.928;2023-02-01T00:23:48;19.60;;;9.23;;
35326;SDS011;21436;52.348;20.928;2023-02-01T00:26:17;20.08;;;9.07;;
35326;SDS011;21436;52.348;20.928;2023-02-01T00:29:09;12.15;;;6.70;;
35326;SDS011;21436;52.348;20.928;2023-02-01T00:31:39;15.20;;;7.68;;
35326;SDS011;21436;52.348;20.928;2023-02-01T00:34:07;12.45;;;7.20;;
35326;SDS011;21436;52.348;20.928;2023-02-01T00:36:35;16.63;;;7.95;;
35326;SDS011;21436;52.348;20.928;2023-02-01T00:39:04;12.80;;;6.45;;
35326;SDS011;21436;52.348;20.928;2023-02-01T00:41:32;14.77;;;6.35;;
35326;SDS011;21436;52.348;20.928;2023-02-01T00:44:01;14.57;;;6.68;;
35326;SDS011;21436;52.348;20.928;2023-02-01T00:46:29;9.32;;;5.60;;
35326;SDS011;21436;52.348;20.928;2023-02-01T00:48:58;9.20;;;4.65;;
35326;SDS011;21436;52.348;20.928;2023-02-01T00:51:27;7.68;;;3.60;;
35326;SDS011;21436;52.348;20.928;2023-02-01T00:53:56;7.28;;;3.63;;
35326;SDS011;21436;52.348;20.928;2023-02-01T00:56:24;8.63;;;3.35;;
35326;SDS011;21436;52.348;20.928;2023-02-01T00:58:55;10.43;;;3.30;;
35326;SDS011;21436;52.348;20.928;2023-02-01T01:01:24;9.73;;;2.63;;
35326;SDS011;21436;52.348;20.928;2023-02-01T01:03:56;9.88;;;4.03;;
35326;SDS011;21436;52.348;20.928;2023-02-01T01:06:29;7.88;;;3.20;;
35326;SDS011;21436;52.348;20.928;2023-02-01T01:08:59;9.15;;;3.00;;
35326;SDS011;21436;52.348;20.928;2023-02-01T01:11:29;7.38;;;3.30;;
35326;SDS011;21436;52.348;20.928;2023-02-01T01:13:59;8.38;;;2.40;;
35326;SDS011;21436;52.348;20.928;2023-02-01T01:16:28;6.95;;;3.15;;
35326;SDS011;21436;52.348;20.928;2023-02-01T01:18:58;8.20;;;3.10;;
35326;SDS011;21436;52.348;20.928;2023-02-01T01:21:26;9.40;;;3.33;;
35326;SDS011;21436;52.348;20.928;2023-02-01T01:23:56;7.10;;;2.50;;
35326;SDS011;21436;52.348;20.928;2023-02-01T01:26:25;9.13;;;2.60;;
35326;SDS011;21436;52.348;20.928;2023-02-01T01:28:58;4.25;;;1.70;;
35326;SDS011;21436;52.348;20.928;2023-02-01T01:31:27;7.88;;;2.85;;
35326;SDS011;21436;52.348;20.928;2023-02-01T01:33:57;9.88;;;2.38;;
35326;SDS011;21436;52.348;20.928;2023-02-01T01:36:27;8.48;;;2.03;;
35326;SDS011;21436;52.348;20.928;2023-02-01T01:38:56;11.32;;;2.20;;
35326;SDS011;21436;52.348;20.928;2023-02-01T01:41:25;8.45;;;2.20;;
35326;SDS011;21436;52.348;20.928;2023-02-01T01:44:00;7.38;;;1.80;;
35326;SDS011;21436;52.348;20.928;2023-02-01T01:46:34;9.00;;;3.28;;
35326;SDS011;21436;52.348;20.928;2023-02-01T01:49:06;4.30;;;1.77;;
35326;SDS011;21436;52.348;20.928;2023-02-01T01:54:25;9.02;;;2.80;;
35326;SDS011;21436;52.348;20.928;2023-02-01T01:57:05;8.70;;;2.00;;
35326;SDS011;21436;52.348;20.928;2023-02-01T01:59:37;9.52;;;2.80;;
35326;SDS011;21436;52.348;20.928;2023-02-01T02:02:05;8.65;;;2.42;;
35326;SDS011;21436;52.348;20.928;2023-02-01T02:04:34;7.10;;;2.30;;
35326;SDS011;21436;52.348;20.928;2023-02-01T02:07:16;9.30;;;2.17;;
35326;SDS011;21436;52.348;20.928;2023-02-01T02:09:47;8.77;;;1.95;;
35326;SDS011;21436;52.348;20.928;2023-02-01T02:12:27;6.15;;;2.00;;
35326;SDS011;21436;52.348;20.928;2023-02-01T02:14:56;18.48;;;2.63;;
35326;SDS011;21436;52.348;20.928;2023-02-01T02:42:12;13.60;;;5.30;;
35326;SDS011;21436;52.348;20.928;2023-02-01T02:45:20;11.63;;;4.32;;
35326;SDS011;21436;52.348;20.928;2023-02-01T02:48:17;21.73;;;7.47;;
35326;SDS011;21436;52.348;20.928;2023-02-01T02:50:54;13.30;;;4.20;;
35326;SDS011;21436;52.348;20.928;2023-02-01T02:56:37;11.27;;;2.95;;
35326;SDS011;21436;52.348;20.928;2023-02-01T02:59:24;8.48;;;3.20;;
35326;SDS011;21436;52.348;20.928;2023-02-01T03:02:12;14.23;;;3.83;;
35326;SDS011;21436;52.348;20.928;2023-02-01T03:05:00;10.13;;;2.72;;
35326;SDS011;21436;52.348;20.928;2023-02-01T03:13:13;16.13;;;2.35;;
35326;SDS011;21436;52.348;20.928;2023-02-01T03:16:10;15.68;;;3.50;;
35326;SDS011;21436;52.348;20.928;2023-02-01T03:18:45;13.02;;;3.78;;
35326;SDS011;21436;52.348;20.928;2023-02-01T03:21:20;16.42;;;2.92;;
35326;SDS011;21436;52.348;20.928;2023-02-01T03:26:20;12.60;;;3.13;;
35326;SDS011;21436;52.348;20.928;2023-02-01T03:28:54;14.98;;;2.90;;
35326;SDS011;21436;52.348;20.928;2023-02-01T03:31:25;13.60;;;4.20;;
35326;SDS011;21436;52.348;20.928;2023-02-01T03:33:55;12.18;;;3.20;;
35326;SDS011;21436;52.348;20.928;2023-02-01T03:39:06;19.38;;;3.63;;
35326;SDS011;21436;52.348;20.928;2023-02-01T03:42:09;17.45;;;3.72;;
35326;SDS011;21436;52.348;20.928;2023-02-01T03:44:45;15.88;;;3.78;;
35326;SDS011;21436;52.348;20.928;2023-02-01T03:47:26;14.38;;;2.72;;
35326;SDS011;21436;52.348;20.928;2023-02-01T03:50:00;22.98;;;3.42;;
35326;SDS011;21436;52.348;20.928;2023-02-01T03:52:55;12.57;;;2.97;;
35326;SDS011;21436;52.348;20.928;2023-02-01T03:55:27;16.10;;;3.10;;
35326;SDS011;21436;52.348;20.928;2023-02-01T03:57:57;11.77;;;2.75;;
35326;SDS011;21436;52.348;20.928;2023-02-01T04:00:29;11.88;;;2.75;;
35326;SDS011;21436;52.348;20.928;2023-02-01T04:02:58;20.08;;;3.72;;
35326;SDS011;21436;52.348;20.928;2023-02-01T04:05:26;13.85;;;3.55;;
35326;SDS011;21436;52.348;20.928;2023-02-01T04:07:59;12.32;;;3.40;;
35326;SDS011;21436;52.348;20.928;2023-02-01T04:10:27;15.43;;;3.45;;
35326;SDS011;21436;52.348;20.928;2023-02-01T04:12:55;14.65;;;3.20;;
35326;SDS011;21436;52.348;20.928;2023-02-01T04:15:23;20.92;;;3.88;;
35326;SDS011;21436;52.348;20.928;2023-02-01T04:17:51;16.70;;;3.33;;
35326;SDS011;21436;52.348;20.928;2023-02-01T04:20:19;19.08;;;4.13;;
35326;SDS011;21436;52.348;20.928;2023-02-01T04:22:49;21.02;;;3.70;;
35326;SDS011;21436;52.348;20.928;2023-02-01T04:25:16;16.40;;;3.28;;
35326;SDS011;21436;52.348;20.928;2023-02-01T04:27:46;20.52;;;3.15;;
35326;SDS011;21436;52.348;20.928;2023-02-01T04:30:14;16.23;;;3.55;;
35326;SDS011;21436;52.348;20.928;2023-02-01T04:32:42;13.07;;;3.33;;
35326;SDS011;21436;52.348;20.928;2023-02-01T04:35:10;16.27;;;2.90;;
35326;SDS011;21436;52.348;20.928;2023-02-01T04:37:39;16.85;;;3.30;;
35326;SDS011;21436;52.348;20.928;2023-02-01T04:40:07;14.00;;;2.95;;
35326;SDS011;21436;52.348;20.928;2023-02-01T04:42:36;16.20;;;3.17;;
35326;SDS011;21436;52.348;20.928;2023-02-01T04:45:04;19.73;;;3.30;;
35326;SDS011;21436;52.348;20.928;2023-02-01T04:47:33;15.75;;;3.30;;
35326;SDS011;21436;52.348;20.928;2023-02-01T04:50:02;10.23;;;3.35;;
35326;SDS011;21436;52.348;20.928;2023-02-01T04:52:31;8.02;;;2.53;;
35326;SDS011;21436;52.348;20.928;2023-02-01T04:54:59;12.85;;;2.78;;
35326;SDS011;21436;52.348;20.928;2023-02-01T04:57:28;12.00;;;3.13;;
35326;SDS011;21436;52.348;20.928;2023-02-01T04:59:56;13.40;;;3.08;;
35326;SDS011;21436;52.348;20.928;2023-02-01T05:02:24;8.57;;;2.85;;
35326;SDS011;21436;52.348;20.928;2023-02-01T05:04:52;14.02;;;2.30;;
35326;SDS011;21436;52.348;20.928;2023-02-01T05:07:22;15.65;;;2.70;;
35326;SDS011;21436;52.348;20.928;2023-02-01T05:09:49;11.23;;;2.95;;
35326;SDS011;21436;52.348;20.928;2023-02-01T05:12:17;15.90;;;2.75;;
35326;SDS011;21436;52.348;20.928;2023-02-01T05:15:04;16.17;;;2.83;;
35326;SDS011;21436;52.348;20.928;2023-02-01T05:17:33;18.15;;;2.80;;
35326;SDS011;21436;52.348;20.928;2023-02-01T05:20:01;18.58;;;2.88;;
35326;SDS011;21436;52.348;20.928;2023-02-01T05:22:29;13.60;;;2.63;;
35326;SDS011;21436;52.348;20.928;2023-02-01T05:24:57;19.38;;;4.63;;
35326;SDS011;21436;52.348;20.928;2023-02-01T05:27:25;16.40;;;2.50;;
35326;SDS011;21436;52.348;20.928;2023-02-01T05:29:52;15.88;;;2.35;;
35326;SDS011;21436;52.348;20.928;2023-02-01T05:32:21;15.02;;;3.15;;
35326;SDS011;21436;52.348;20.928;2023-02-01T05:34:49;14.65;;;2.15;;
35326;SDS011;21436;52.348;20.928;2023-02-01T05:37:17;13.60;;;2.63;;
35326;SDS011;21436;52.348;20.928;2023-02-01T05:39:46;16.27;;;2.65;;
35326;SDS011;21436;52.348;20.928;2023-02-01T05:42:14;10.73;;;2.83;;
35326;SDS011;21436;52.348;20.928;2023-02-01T05:44:42;15.07;;;3.17;;
35326;SDS011;21436;52.348;20.928;2023-02-01T05:47:10;16.08;;;2.78;;
35326;SDS011;21436;52.348;20.928;2023-02-01T05:49:39;10.55;;;2.28;;
35326;SDS011;21436;52.348;20.928;2023-02-01T05:52:07;16.45;;;3.08;;
35326;SDS011;21436;52.348;20.928;2023-02-01T05:54:35;11.02;;;2.38;;
35326;SDS011;21436;52.348;20.928;2023-02-01T05:57:04;16.45;;;3.35;;
35326;SDS011;21436;52.348;20.928;2023-02-01T05:59:31;13.73;;;2.20;;
35326;SDS011;21436;52.348;20.928;2023-02-01T06:02:00;16.63;;;2.95;;
35326;SDS011;21436;52.348;20.928;2023-02-01T06:04:27;12.68;;;2.13;;
35326;SDS011;21436;52.348;20.928;2023-02-01T06:06:55;14.05;;;2.22;;
35326;SDS011;21436;52.348;20.928;2023-02-01T06:09:23;17.77;;;3.25;;
35326;SDS011;21436;52.348;20.928;2023-02-01T06:11:51;12.77;;;2.60;;
35326;SDS011;21436;52.348;20.928;2023-02-01T06:14:19;17.20;;;3.25;;
35326;SDS011;21436;52.348;20.928;2023-02-01T06:16:47;15.27;;;2.78;;
35326;SDS011;21436;52.348;20.928;2023-02-01T06:19:15;16.27;;;3.47;;
35326;SDS011;21436;52.348;20.928;2023-02-01T06:21:43;14.18;;;2.33;;
35326;SDS011;21436;52.348;20.928;2023-02-01T06:24:11;8.88;;;2.33;;
35326;SDS011;21436;52.348;20.928;2023-02-01T06:26:40;9.85;;;2.50;;
35326;SDS011;21436;52.348;20.928;2023-02-01T06:29:11;7.05;;;2.40;;
35326;SDS011;21436;52.348;20.928;2023-02-01T06:31:39;15.23;;;3.30;;
35326;SDS011;21436;52.348;20.928;2023-02-01T06:34:07;12.40;;;3.63;;
35326;SDS011;21436;52.348;20.928;2023-02-01T06:36:36;15.70;;;3.85;;
35326;SDS011;21436;52.348;20.928;2023-02-01T06:39:04;14.07;;;2.95;;
35326;SDS011;21436;52.348;20.928;2023-02-01T06:41:32;22.90;;;3.35;;
35326;SDS011;21436;52.348;20.928;2023-02-01T06:44:02;20.23;;;3.47;;
35326;SDS011;21436;52.348;20.928;2023-02-01T06:46:30;13.52;;;3.95;;
35326;SDS011;21436;52.348;20.928;2023-02-01T06:48:58;15.63;;;2.72;;
35326;SDS011;21436;52.348;20.928;2023-02-01T06:51:27;12.75;;;2.50;;
35326;SDS011;21436;52.348;20.928;2023-02-01T06:53:56;17.27;;;2.85;;
35326;SDS011;21436;52.348;20.928;2023-02-01T06:56:25;11.80;;;2.20;;
35326;SDS011;21436;52.348;20.928;2023-02-01T06:58:53;18.15;;;2.85;;
35326;SDS011;21436;52.348;20.928;2023-02-01T07:01:21;21.23;;;2.75;;
35326;SDS011;21436;52.348;20.928;2023-02-01T07:03:49;14.35;;;2.70;;
35326;SDS011;21436;52.348;20.928;2023-02-01T07:06:20;16.95;;;2.67;;
35326;SDS011;21436;52.348;20.928;2023-02-01T07:08:49;21.98;;;3.22;;
35326;SDS011;21436;52.348;20.928;2023-02-01T07:11:18;15.20;;;3.10;;
35326;SDS011;21436;52.348;20.928;2023-02-01T07:13:46;11.90;;;3.08;;
35326;SDS011;21436;52.348;20.928;2023-02-01T07:16:16;16.33;;;2.92;;
35326;SDS011;21436;52.348;20.928;2023-02-01T07:18:46;20.00;;;3.15;;
35326;SDS011;21436;52.348;20.928;2023-02-01T07:21:14;12.80;;;3.10;;
35326;SDS011;21436;52.348;20.928;2023-02-01T07:23:42;10.25;;;2.83;;
35326;SDS011;21436;52.348;20.928;2023-02-01T07:26:11;10.90;;;3.33;;
35326;SDS011;21436;52.348;20.928;2023-02-01T07:28:40;15.95;;;3.60;;
35326;SDS011;21436;52.348;20.928;2023-02-01T07:31:10;20.90;;;3.75;;
35326;SDS011;21436;52.348;20.928;2023-02-01T07:33:40;18.35;;;3.55;;
35326;SDS011;21436;52.348;20.928;2023-02-01T07:36:16;16.95;;;4.57;;
35326;SDS011;21436;52.348;20.928;2023-02-01T07:38:44;14.18;;;2.88;;
35326;SDS011;21436;52.348;20.928;2023-02-01T07:41:15;10.20;;;3.22;;
35326;SDS011;21436;52.348;20.928;2023-02-01T07:43:43;14.15;;;3.00;;
35326;SDS011;21436;52.348;20.928;2023-02-01T07:46:12;18.73;;;3.33;;
35326;SDS011;21436;52.348;20.928;2023-02-01T07:48:40;19.63;;;3.70;;
35326;SDS011;21436;52.348;20.928;2023-02-01T07:51:10;11.23;;;3.55;;
35326;SDS011;21436;52.348;20.928;2023-02-01T07:53:40;12.18;;;2.75;;
35326;SDS011;21436;52.348;20.928;2023-02-01T07:56:18;13.18;;;3.83;;
35326;SDS011;21436;52.348;20.928;2023-02-01T07:58:48;18.50;;;3.50;;
35326;SDS011;21436;52.348;20.928;2023-02-01T08:01:23;16.10;;;3.58;;
35326;SDS011;21436;52.348;20.928;2023-02-01T08:03:54;16.95;;;3.22;;
35326;SDS011;21436;52.348;20.928;2023-02-01T08:06:23;16.42;;;3.50;;
35326;SDS011;21436;52.348;20.928;2023-02-01T08:08:52;18.65;;;3.17;;
35326;SDS011;21436;52.348;20.928;2023-02-01T08:11:22;13.57;;;3.88;;
35326;SDS011;21436;52.348;20.928;2023-02-01T08:13:51;14.48;;;3.40;;
35326;SDS011;21436;52.348;20.928;2023-02-01T08:16:20;19.73;;;3.50;;
35326;SDS011;21436;52.348;20.928;2023-02-01T08:18:48;18.85;;;4.53;;
35326;SDS011;21436;52.348;20.928;2023-02-01T08:21:19;18.70;;;3.17;;
35326;SDS011;21436;52.348;20.928;2023-02-01T08:23:52;23.83;;;3.63;;
35326;SDS011;21436;52.348;20.928;2023-02-01T08:26:21;16.75;;;4.32;;
35326;SDS011;21436;52.348;20.928;2023-02-01T08:28:53;12.02;;;3.20;;
35326;SDS011;21436;52.348;20.928;2023-02-01T08:31:23;19.27;;;3.97;;
35326;SDS011;21436;52.348;20.928;2023-02-01T08:33:54;19.80;;;4.25;;
35326;SDS011;21436;52.348;20.928;2023-02-01T08:36:24;12.52;;;3.50;;
35326;SDS011;21436;52.348;20.928;2023-02-01T08:38:53;20.02;;;3.60;;
35326;SDS011;21436;52.348;20.928;2023-02-01T08:41:23;16.75;;;4.20;;
35326;SDS011;21436;52.348;20.928;2023-02-01T08:43:52;16.50;;;3.17;;
35326;SDS011;21436;52.348;20.928;2023-02-01T08:46:22;22.35;;;4.05;;
35326;SDS011;21436;52.348;20.928;2023-02-01T08:48:51;12.95;;;3.78;;
35326;SDS011;21436;52.348;20.928;2023-02-01T08:51:20;16.88;;;3.92;;
35326;SDS011;21436;52.348;20.928;2023-02-01T08:53:49;17.38;;;4.22;;
35326;SDS011;21436;52.348;20.928;2023-02-01T08:56:18;18.92;;;4.35;;
35326;SDS011;21436;52.348;20.928;2023-02-01T08:58:46;24.45;;;4.60;;
35326;SDS011;21436;52.348;20.928;2023-02-01T09:01:15;23.77;;;4.50;;
35326;SDS011;21436;52.348;20.928;2023-02-01T09:03:44;20.52;;;4.22;;
35326;SDS011;21436;52.348;20.928;2023-02-01T09:06:14;15.93;;;3.45;;
35326;SDS011;21436;52.348;20.928;2023-02-01T09:08:43;20.35;;;4.00;;
35326;SDS011;21436;52.348;20.928;2023-02-01T09:11:15;14.88;;;3.50;;
35326;SDS011;21436;52.348;20.928;2023-02-01T09:13:45;19.83;;;4.28;;
35326;SDS011;21436;52.348;20.928;2023-02-01T09:16:13;18.33;;;4.28;;
35326;SDS011;21436;52.348;20.928;2023-02-01T09:18:41;14.63;;;3.70;;
35326;SDS011;21436;52.348;20.928;2023-02-01T09:21:28;19.17;;;3.78;;
35326;SDS011;21436;52.348;20.928;2023-02-01T09:23:56;14.30;;;3.85;;
35326;SDS011;21436;52.348;20.928;2023-02-01T09:26:25;18.60;;;4.18;;
35326;SDS011;21436;52.348;20.928;2023-02-01T09:31:27;14.38;;;3.55;;
35326;SDS011;21436;52.348;20.928;2023-02-01T09:33:55;14.02;;;3.08;;
35326;SDS011;21436;52.348;20.928;2023-02-01T09:36:24;12.18;;;3.30;;
35326;SDS011;21436;52.348;20.928;2023-02-01T09:38:54;17.55;;;3.78;;
35326;SDS011;21436;52.348;20.928;2023-02-01T09:41:56;14.35;;;3.90;;
35326;SDS011;21436;52.348;20.928;2023-02-01T09:47:09;21.20;;;4.20;;
35326;SDS011;21436;52.348;20.928;2023-02-01T09:52:25;23.63;;;4.47;;
35326;SDS011;21436;52.348;20.928;2023-02-01T09:55:05;18.55;;;4.18;;
35326;SDS011;21436;52.348;20.928;2023-02-01T09:57:43;18.50;;;3.80;;
35326;SDS011;21436;52.348;20.928;2023-02-01T10:00:19;16.85;;;3.83;;
35326;SDS011;21436;52.348;20.928;2023-02-01T10:02:51;14.10;;;3.60;;
35326;SDS011;21436;52.348;20.928;2023-02-01T10:08:11;27.27;;;4.32;;
35326;SDS011;21436;52.348;20.928;2023-02-01T10:10:48;21.05;;;4.53;;
35326;SDS011;21436;52.348;20.928;2023-02-01T10:24:25;19.90;;;4.40;;
35326;SDS011;21436;52.348;20.928;2023-02-01T10:26:59;17.35;;;4.13;;
35326;SDS011;21436;52.348;20.928;2023-02-01T10:29:33;15.65;;;3.50;;
35326;SDS011;21436;52.348;20.928;2023-02-01T10:32:09;17.95;;;3.67;;
35326;SDS011;21436;52.348;20.928;2023-02-01T10:34:41;17.13;;;3.55;;
35326;SDS011;21436;52.348;20.928;2023-02-01T10:42:56;14.57;;;3.35;;
35326;SDS011;21436;52.348;20.928;2023-02-01T10:45:27;17.48;;;4.25;;
35326;SDS011;21436;52.348;20.928;2023-02-01T10:47:57;13.27;;;3.20;;
35326;SDS011;21436;52.348;20.928;2023-02-01T10:53:06;12.65;;;3.03;;
35326;SDS011;21436;52.348;20.928;2023-02-01T10:58:19;11.48;;;4.10;;
35326;SDS011;21436;52.348;20.928;2023-02-01T11:00:57;15.50;;;4.50;;
35326;SDS011;21436;52.348;20.928;2023-02-01T11:03:44;20.42;;;3.80;;
35326;SDS011;21436;52.348;20.928;2023-02-01T11:06:27;17.00;;;3.72;;
35326;SDS011;21436;52.348;20.928;2023-02-01T11:14:17;11.00;;;3.00;;
35326;SDS011;21436;52.348;20.928;2023-02-01T11:16:49;24.40;;;4.75;;
35326;SDS011;21436;52.348;20.928;2023-02-01T11:19:21;12.80;;;3.80;;
35326;SDS011;21436;52.348;20.928;2023-02-01T11:21:53;12.80;;;4.00;;
35326;SDS011;21436;52.348;20.928;2023-02-01T11:27:14;12.52;;;3.90;;
35326;SDS011;21436;52.348;20.928;2023-02-01T11:29:55;17.88;;;3.88;;
35326;SDS011;21436;52.348;20.928;2023-02-01T11:32:27;14.70;;;3.25;;
35326;SDS011;21436;52.348;20.928;2023-02-01T11:34:57;19.15;;;3.80;;
35326;SDS011;21436;52.348;20.928;2023-02-01T11:39:59;12.88;;;3.60;;
35326;SDS011;21436;52.348;20.928;2023-02-01T11:42:29;12.90;;;2.85;;
35326;SDS011;21436;52.348;20.928;2023-02-01T11:47:51;22.20;;;3.63;;
35326;SDS011;21436;52.348;20.928;2023-02-01T11:56:27;9.90;;;3.10;;
35326;SDS011;21436;52.348;20.928;2023-02-01T11:59:09;14.25;;;3.50;;
35326;SDS011;21436;52.348;20.928;2023-02-01T12:04:42;13.90;;;3.20;;
35326;SDS011;21436;52.348;20.928;2023-02-01T12:07:20;9.38;;;2.90;;
35326;SDS011;21436;52.348;20.928;2023-02-01T12:12:38;11.05;;;3.50;;
35326;SDS011;21436;52.348;20.928;2023-02-01T12:15:18;16.83;;;4.43;;
35326;SDS011;21436;52.348;20.928;2023-02-01T12:21:06;12.35;;;4.07;;
35326;SDS011;21436;52.348;20.928;2023-02-01T12:30:17;17.23;;;4.50;;
35326;SDS011;21436;52.348;20.928;2023-02-01T12:32:26;18.08;;;4.57;;
35326;SDS011;21436;52.348;20.928;2023-02-01T12:35:25;16.23;;;4.28;;
35326;SDS011;21436;52.348;20.928;2023-02-01T12:41:36;19.38;;;4.47;;
35326;SDS011;21436;52.348;20.928;2023-02-01T12:44:23;15.38;;;4.68;;
35326;SDS011;21436;52.348;20.928;2023-02-01T12:47:05;15.40;;;4.55;;
35326;SDS011;21436;52.348;20.928;2023-02-01T12:49:42;19.65;;;4.80;;
35326;SDS011;21436;52.348;20.928;2023-02-01T12:57:37;16.08;;;3.97;;
35326;SDS011;21436;52.348;20.928;2023-02-01T13:02:57;17.33;;;4.22;;
35326;SDS011;21436;52.348;20.928;2023-02-01T13:05:50;13.02;;;3.72;;
35326;SDS011;21436;52.348;20.928;2023-02-01T13:08:24;20.20;;;4.53;;
35326;SDS011;21436;52.348;20.928;2023-02-01T13:11:03;21.40;;;4.90;;
35326;SDS011;21436;52.348;20.928;2023-02-01T13:13:39;17.40;;;3.90;;
35326;SDS011;21436;52.348;20.928;2023-02-01T13:16:17;18.17;;;4.05;;
35326;SDS011;21436;52.348;20.928;2023-02-01T13:19:00;22.77;;;4.47;;
35326;SDS011;21436;52.348;20.928;2023-02-01T13:21:34;13.65;;;3.55;;
35326;SDS011;21436;52.348;20.928;2023-02-01T13:24:14;15.93;;;3.45;;
35326;SDS011;21436;52.348;20.928;2023-02-01T13:26:59;11.15;;;3.45;;
35326;SDS011;21436;52.348;20.928;2023-02-01T13:29:28;8.90;;;2.33;;
35326;SDS011;21436;52.348;20.928;2023-02-01T13:45:23;13.80;;;3.10;;
35326;SDS011;21436;52.348;20.928;2023-02-01T13:47:54;13.10;;;3.00;;
35326;SDS011;21436;52.348;20.928;2023-02-01T13:50:31;14.82;;;3.45;;
35326;SDS011;21436;52.348;20.928;2023-02-01T13:53:13;9.45;;;3.15;;
35326;SDS011;21436;52.348;20.928;2023-02-01T13:55:44;7.95;;;2.20;;
35326;SDS011;21436;52.348;20.928;2023-02-01T13:58:21;7.63;;;2.75;;
35326;SDS011;21436;52.348;20.928;2023-02-01T14:00:50;9.90;;;2.65;;
35326;SDS011;21436;52.348;20.928;2023-02-01T14:03:22;8.43;;;2.50;;
35326;SDS011;21436;52.348;20.928;2023-02-01T14:06:15;10.27;;;2.75;;
35326;SDS011;21436;52.348;20.928;2023-02-01T14:08:46;9.18;;;3.15;;
35326;SDS011;21436;52.348;20.928;2023-02-01T14:11:47;8.48;;;2.78;;
35326;SDS011;21436;52.348;20.928;2023-02-01T14:19:24;15.15;;;3.25;;
35326;SDS011;21436;52.348;20.928;2023-02-01T14:21:56;10.80;;;3.38;;
35326;SDS011;21436;52.348;20.928;2023-02-01T14:24:29;16.13;;;3.08;;
35326;SDS011;21436;52.348;20.928;2023-02-01T14:27:21;7.82;;;2.97;;
35326;SDS011;21436;52.348;20.928;2023-02-01T14:29:58;11.57;;;2.63;;
35326;SDS011;21436;52.348;20.928;2023-02-01T14:37:36;11.80;;;4.00;;
35326;SDS011;21436;52.348;20.928;2023-02-01T14:42:44;13.55;;;3.35;;
35326;SDS011;21436;52.348;20.928;2023-02-01T14:47:55;10.35;;;2.58;;
35326;SDS011;21436;52.348;20.928;2023-02-01T14:50:34;10.20;;;3.15;;
35326;SDS011;21436;52.348;20.928;2023-02-01T15:00:48;6.93;;;2.47;;
35326;SDS011;21436;52.348;20.928;2023-02-01T15:06:26;12.85;;;3.05;;
35326;SDS011;21436;52.348;20.928;2023-02-01T15:09:19;9.13;;;2.45;;
35326;SDS011;21436;52.348;20.928;2023-02-01T15:14:40;6.13;;;3.20;;
35326;SDS011;21436;52.348;20.928;2023-02-01T15:17:28;6.65;;;2.50;;
35326;SDS011;21436;52.348;20.928;2023-02-01T15:20:20;5.40;;;2.47;;
35326;SDS011;21436;52.348;20.928;2023-02-01T15:22:57;6.05;;;2.50;;
35326;SDS011;21436;52.348;20.928;2023-02-01T15:25:33;7.18;;;3.13;;
35326;SDS011;21436;52.348;20.928;2023-02-01T15:28:10;5.53;;;3.15;;
35326;SDS011;21436;52.348;20.928;2023-02-01T15:30:51;7.68;;;3.30;;
35326;SDS011;21436;52.348;20.928;2023-02-01T15:33:32;6.30;;;2.70;;
35326;SDS011;21436;52.348;20.928;2023-02-01T15:38:39;7.03;;;2.97;;
35326;SDS011;21436;52.348;20.928;2023-02-01T15:41:14;6.80;;;3.08;;
35326;SDS011;21436;52.348;20.928;2023-02-01T15:44:02;5.32;;;2.63;;
35326;SDS011;21436;52.348;20.928;2023-02-01T15:46:40;9.02;;;3.63;;
35326;SDS011;21436;52.348;20.928;2023-02-01T15:52:03;9.75;;;3.53;;
35326;SDS011;21436;52.348;20.928;2023-02-01T15:54:54;4.43;;;3.00;;
35326;SDS011;21436;52.348;20.928;2023-02-01T15:57:29;11.00;;;3.50;;
35326;SDS011;21436;52.348;20.928;2023-02-01T16:00:25;10.70;;;4.07;;
35326;SDS011;21436;52.348;20.928;2023-02-01T16:03:02;7.28;;;3.70;;
35326;SDS011;21436;52.348;20.928;2023-02-01T16:05:37;6.78;;;3.28;;
35326;SDS011;21436;52.348;20.928;2023-02-01T16:08:15;8.32;;;3.60;;
35326;SDS011;21436;52.348;20.928;2023-02-01T16:10:49;11.20;;;3.70;;
35326;SDS011;21436;52.348;20.928;2023-02-01T16:13:19;8.90;;;4.10;;
35326;SDS011;21436;52.348;20.928;2023-02-01T16:15:48;12.23;;;4.22;;
35326;SDS011;21436;52.348;20.928;2023-02-01T16:18:17;11.73;;;4.65;;
35326;SDS011;21436;52.348;20.928;2023-02-01T16:20:46;8.95;;;4.22;;
35326;SDS011;21436;52.348;20.928;2023-02-01T16:23:15;8.80;;;4.00;;
35326;SDS011;21436;52.348;20.928;2023-02-01T16:25:43;19.83;;;8.32;;
35326;SDS011;21436;52.348;20.928;2023-02-01T16:28:10;9.68;;;4.88;;
35326;SDS011;21436;52.348;20.928;2023-02-01T16:30:39;12.20;;;4.88;;
35326;SDS011;21436;52.348;20.928;2023-02-01T16:33:09;11.75;;;5.03;;
35326;SDS011;21436;52.348;20.928;2023-02-01T16:35:40;9.32;;;4.60;;
35326;SDS011;21436;52.348;20.928;2023-02-01T16:38:10;10.70;;;4.72;;
35326;SDS011;21436;52.348;20.928;2023-02-01T16:40:41;9.48;;;4.90;;
35326;SDS011;21436;52.348;20.928;2023-02-01T16:43:12;9.75;;;4.60;;
35326;SDS011;21436;52.348;20.928;2023-02-01T16:45:43;10.13;;;5.20;;
35326;SDS011;21436;52.348;20.928;2023-02-01T16:50:51;15.52;;;5.32;;
35326;SDS011;21436;52.348;20.928;2023-02-01T16:53:21;11.40;;;4.13;;
35326;SDS011;21436;52.348;20.928;2023-02-01T16:55:51;10.48;;;4.70;;
35326;SDS011;21436;52.348;20.928;2023-02-01T16:58:20;11.68;;;4.10;;
35326;SDS011;21436;52.348;20.928;2023-02-01T17:00:49;10.43;;;4.95;;
35326;SDS011;21436;52.348;20.928;2023-02-01T17:03:20;13.88;;;5.50;;
35326;SDS011;21436;52.348;20.928;2023-02-01T17:05:53;13.07;;;4.25;;
35326;SDS011;21436;52.348;20.928;2023-02-01T17:11:03;11.00;;;5.75;;
35326;SDS011;21436;52.348;20.928;2023-02-01T17:13:32;10.68;;;4.80;;
35326;SDS011;21436;52.348;20.928;2023-02-01T17:16:01;10.45;;;4.43;;
35326;SDS011;21436;52.348;20.928;2023-02-01T17:18:32;14.40;;;5.18;;
35326;SDS011;21436;52.348;20.928;2023-02-01T17:21:06;14.95;;;5.15;;
35326;SDS011;21436;52.348;20.928;2023-02-01T17:23:55;10.02;;;4.32;;
35326;SDS011;21436;52.348;20.928;2023-02-01T17:26:25;11.90;;;4.30;;
35326;SDS011;21436;52.348;20.928;2023-02-01T17:28:54;9.35;;;3.90;;
35326;SDS011;21436;52.348;20.928;2023-02-01T17:31:24;10.05;;;4.20;;
35326;SDS011;21436;52.348;20.928;2023-02-01T17:33:52;15.05;;;5.57;;
35326;SDS011;21436;52.348;20.928;2023-02-01T17:36:21;17.10;;;4.55;;
35326;SDS011;21436;52.348;20.928;2023-02-01T17:38:49;11.13;;;4.53;;
35326;SDS011;21436;52.348;20.928;2023-02-01T17:41:31;15.30;;;4.85;;
35326;SDS011;21436;52.348;20.928;2023-02-01T17:43:59;12.57;;;5.05;;
35326;SDS011;21436;52.348;20.928;2023-02-01T17:46:28;11.40;;;4.68;;
35326;SDS011;21436;52.348;20.928;2023-02-01T17:48:58;12.63;;;4.60;;
35326;SDS011;21436;52.348;20.928;2023-02-01T17:51:26;8.95;;;4.53;;
35326;SDS011;21436;52.348;20.928;2023-02-01T17:53:54;9.63;;;4.13;;